Cobden, Illinois
Current Conditions -  °F | °C
As of 7:25 PM on Sunday 23 Nov 2014 (Local Time) from KMDH Reporting Station
Overcast Overcast  
Wind Chill: 53°   Ceiling: 1200
Heat Index: 53°   Visibility: 7mi
Dew Point: 52°   Wind: 5mph
Humidity: 96%   Direction: 210°SSW
Pressure: 29.28"   Gusts: NA
Location:  37.53°N, 89.25°W
Report Text: KMDH 240125Z AUTO 21004KT 7SM BKN012 BKN034 OVC085 12/11 A2928 RMK AO2 RAE11 P0001 T01170111
Loading
Personal Weather Stations






























Interactive Weather Map New forecast layout! Learn more

10-Day Weather Forecast

Advertisements
Track Severe Weather on mobile